Time;durP1;ratioP1;P1;durP2;ratioP2;P2;SDS_P1;SDS_P2;PMS_P1;PMS_P2;Temp;Humidity;BMP_temperature;BMP_pressure;BME280_temperature;BME280_humidity;BME280_pressure;Samples;Min_cycle;Max_cycle;Signal;HPM_P1;HPM_P2
2023/01/09 00:04:46;;;;;;;103.40;40.80;;;;;;;3.91;99.96;97568.25;220550;1312;24183;-73
2023/01/09 00:09:48;;;;;;;95.60;38.80;;;;;;;3.81;100.00;97561.27;220486;1312;24000;-73
2023/01/09 00:14:52;;;;;;;100.40;41.50;;;;;;;3.72;100.00;97557.85;220573;1307;24177;-73
2023/01/09 00:19:54;;;;;;;103.80;43.60;;;;;;;3.64;100.00;97556.10;220418;1312;24936;-73
2023/01/09 00:24:55;;;;;;;109.70;47.10;;;;;;;3.57;100.00;97552.17;220535;1312;24225;-72
2023/01/09 00:29:58;;;;;;;127.20;51.10;;;;;;;3.52;100.00;97554.77;220500;1312;22206;-72
2023/01/09 00:34:59;;;;;;;117.60;48.60;;;;;;;3.49;100.00;97550.40;220488;1312;22166;-72
2023/01/09 00:40:01;;;;;;;113.00;46.80;;;;;;;3.46;100.00;97549.24;220556;1312;22154;-72
2023/01/09 00:45:08;;;;;;;122.70;46.50;;;;;;;3.45;100.00;97548.51;220482;1311;24244;-72
2023/01/09 00:50:25;;;;;;;119.50;46.20;;;;;;;3.42;100.00;97540.95;220462;1312;24119;-72
2023/01/09 00:55:26;;;;;;;118.20;45.80;;;;;;;3.41;100.00;97546.25;220557;1312;23982;-72
2023/01/09 01:00:28;;;;;;;112.70;44.90;;;;;;;3.38;100.00;97548.91;220537;1311;24901;-72
2023/01/09 01:10:51;;;;;;;116.20;44.50;;;;;;;3.34;100.00;97538.75;220480;1312;24209;-72
2023/01/09 01:15:53;;;;;;;112.10;44.30;;;;;;;3.34;100.00;97539.18;220556;1312;24175;-72
2023/01/09 01:20:54;;;;;;;112.70;44.50;;;;;;;3.36;100.00;97531.98;220567;1312;24852;-72
2023/01/09 01:25:56;;;;;;;120.70;44.60;;;;;;;3.39;100.00;97533.39;220471;1312;24383;-73
2023/01/09 01:30:59;;;;;;;104.80;41.80;;;;;;;3.42;100.00;97528.02;220314;1307;24177;-73
2023/01/09 01:36:06;;;;;;;109.30;41.70;;;;;;;3.45;100.00;97516.20;220488;1312;22167;-72
2023/01/09 01:41:09;;;;;;;104.00;41.00;;;;;;;3.48;100.00;97505.39;220505;1312;23133;-72
2023/01/09 01:46:11;;;;;;;102.20;40.50;;;;;;;3.50;100.00;97504.33;220576;1307;24071;-72
2023/01/09 01:51:15;;;;;;;106.90;42.40;;;;;;;3.50;100.00;97517.77;220550;1312;24758;-72
2023/01/09 01:56:34;;;;;;;96.40;40.50;;;;;;;3.48;100.00;97530.86;220338;1312;24812;-72
2023/01/09 02:01:39;;;;;;;104.10;40.50;;;;;;;3.44;100.00;97523.14;220480;1312;24070;-72
2023/01/09 02:06:44;;;;;;;110.80;40.40;;;;;;;3.42;100.00;97512.50;220474;1311;24117;-72
2023/01/09 02:11:47;;;;;;;103.80;39.10;;;;;;;3.41;100.00;97513.11;220436;1312;24176;-72
2023/01/09 02:17:16;;;;;;;118.00;45.00;;;;;;;3.38;100.00;97511.20;220300;1312;22797;-72
2023/01/09 02:22:35;;;;;;;114.40;45.50;;;;;;;3.36;100.00;97505.98;220560;1305;24140;-73
2023/01/09 02:28:22;;;;;;;116.50;45.60;;;;;;;3.35;100.00;97496.82;220543;1312;24141;-72
2023/01/09 02:33:28;;;;;;;115.50;45.20;;;;;;;3.34;100.00;97496.83;218933;1318;24213;-73
2023/01/09 02:38:56;;;;;;;112.60;43.40;;;;;;;3.30;100.00;97470.42;220199;1312;24148;-72
2023/01/09 02:44:29;;;;;;;95.20;34.90;;;;;;;3.29;100.00;97449.26;220563;1312;22354;-72
2023/01/09 02:49:34;;;;;;;111.70;42.00;;;;;;;3.32;100.00;97446.81;220548;1312;24175;-73
2023/01/09 02:54:45;;;;;;;102.40;39.70;;;;;;;3.35;100.00;97454.15;220342;1312;24767;-72
2023/01/09 03:00:02;;;;;;;97.40;39.80;;;;;;;3.39;100.00;97459.90;220533;1312;24964;-73
2023/01/09 03:05:15;;;;;;;79.20;30.70;;;;;;;3.41;100.00;97453.42;220599;1304;24207;-72
2023/01/09 03:10:24;;;;;;;104.30;39.90;;;;;;;3.45;100.00;97442.50;220513;1312;24549;-72
2023/01/09 03:15:29;;;;;;;71.90;29.80;;;;;;;3.46;100.00;97433.01;220519;1312;24165;-72
2023/01/09 03:20:31;;;;;;;66.00;30.40;;;;;;;3.43;100.00;97427.46;220513;1312;24212;-73
2023/01/09 03:25:33;;;;;;;92.50;37.00;;;;;;;3.34;100.00;97426.78;220368;1312;22064;-73
2023/01/09 03:30:35;;;;;;;107.30;41.20;;;;;;;3.23;100.00;97413.17;220359;1312;24829;-72
2023/01/09 03:35:37;;;;;;;88.40;38.10;;;;;;;3.13;100.00;97408.96;220575;1312;22174;-72
2023/01/09 03:40:42;;;;;;;100.00;41.40;;;;;;;3.02;100.00;97389.39;220597;1310;24248;-72
2023/01/09 03:45:43;;;;;;;71.40;31.70;;;;;;;2.98;100.00;97378.86;220524;1312;22934;-72
2023/01/09 03:50:53;;;;;;;83.60;36.40;;;;;;;2.91;100.00;97381.45;220526;1312;22833;-72
2023/01/09 03:55:56;;;;;;;85.80;37.40;;;;;;;2.80;100.00;97364.52;220348;1312;24117;-72
2023/01/09 04:01:01;;;;;;;96.90;38.90;;;;;;;2.77;100.00;97360.03;220515;1312;24672;-72
2023/01/09 04:06:04;;;;;;;81.10;34.00;;;;;;;2.77;100.00;97359.36;220409;1312;24203;-73
2023/01/09 04:11:06;;;;;;;91.10;37.50;;;;;;;2.78;100.00;97353.48;220576;1312;24193;-73
2023/01/09 04:16:07;;;;;;;105.40;43.50;;;;;;;2.80;100.00;97350.82;220489;1312;22203;-73
2023/01/09 04:21:09;;;;;;;105.30;44.40;;;;;;;2.83;100.00;97346.68;220468;1312;23073;-73
2023/01/09 04:26:11;;;;;;;90.80;40.60;;;;;;;2.83;100.00;97334.67;220568;1312;24352;-73
2023/01/09 04:31:13;;;;;;;81.60;34.40;;;;;;;2.78;100.00;97326.35;220383;1312;24659;-73
2023/01/09 04:36:14;;;;;;;102.30;42.20;;;;;;;2.73;100.00;97325.47;220524;1312;22207;-73
2023/01/09 04:41:47;;;;;;;112.00;47.90;;;;;;;2.68;100.00;97308.89;220332;1312;22591;-73
2023/01/09 04:46:38;;;;;;;96.40;44.10;;;;;;;2.64;100.00;97299.71;220498;1312;24228;-73
2023/01/09 04:51:40;;;;;;;88.80;41.00;;;;;;;2.59;100.00;97294.02;220546;1312;24205;-73
2023/01/09 04:56:42;;;;;;;95.10;43.70;;;;;;;2.54;100.00;97289.39;220507;1312;24145;-73
2023/01/09 05:01:44;;;;;;;92.80;42.30;;;;;;;2.56;100.00;97288.90;220536;1311;24171;-73
2023/01/09 05:06:46;;;;;;;86.40;39.20;;;;;;;2.60;100.00;97276.77;220501;1312;24774;-73
2023/01/09 05:11:48;;;;;;;72.10;36.10;;;;;;;2.59;100.00;97270.07;220589;1312;24230;-73
2023/01/09 05:16:50;;;;;;;80.20;38.60;;;;;;;2.68;100.00;97266.27;220518;1312;24105;-73
2023/01/09 05:21:52;;;;;;;94.50;44.20;;;;;;;2.70;100.00;97258.69;220537;1312;24797;-73
2023/01/09 05:26:54;;;;;;;77.60;36.50;;;;;;;2.71;100.00;97253.82;220443;1312;24140;-73
2023/01/09 05:31:56;;;;;;;78.30;38.20;;;;;;;2.73;100.00;97246.83;220450;1312;24063;-73
2023/01/09 05:36:58;;;;;;;74.50;35.30;;;;;;;2.74;100.00;97241.27;220546;1312;25432;-72
2023/01/09 05:41:59;;;;;;;82.30;38.60;;;;;;;2.80;100.00;97238.48;220551;1312;22214;-72
2023/01/09 05:47:01;;;;;;;83.20;38.60;;;;;;;2.90;100.00;97234.34;220424;1312;24206;-72
2023/01/09 05:52:03;;;;;;;95.60;43.00;;;;;;;3.00;100.00;97231.13;220426;1312;25090;-72
2023/01/09 05:57:05;;;;;;;74.10;36.90;;;;;;;3.08;100.00;97228.16;220519;1312;22088;-73
2023/01/09 06:02:08;;;;;;;96.70;43.80;;;;;;;3.16;100.00;97230.00;220455;1312;23958;-73
2023/01/09 06:07:09;;;;;;;103.70;47.80;;;;;;;3.25;100.00;97228.80;220340;1312;24231;-73
2023/01/09 06:12:11;;;;;;;94.70;44.60;;;;;;;3.31;100.00;97227.70;220453;1312;23973;-72
2023/01/09 06:17:13;;;;;;;89.80;40.40;;;;;;;3.35;100.00;97227.99;220565;1312;24165;-73
2023/01/09 06:22:15;;;;;;;95.60;44.20;;;;;;;3.40;100.00;97222.34;220540;1312;22075;-73
2023/01/09 06:27:17;;;;;;;109.40;50.10;;;;;;;3.46;100.00;97218.99;220502;1312;22300;-73
2023/01/09 06:32:18;;;;;;;104.10;47.80;;;;;;;3.53;100.00;97216.70;220609;1312;22953;-73
2023/01/09 06:37:20;;;;;;;96.20;44.30;;;;;;;3.65;100.00;97217.91;220523;1312;22239;-73
2023/01/09 06:42:22;;;;;;;72.10;34.60;;;;;;;3.78;100.00;97219.30;220435;1287;22911;-72
2023/01/09 06:47:24;;;;;;;100.10;42.40;;;;;;;3.94;100.00;97220.13;220352;1288;24825;-72
2023/01/09 06:52:25;;;;;;;104.30;48.20;;;;;;;4.08;100.00;97224.95;220188;1293;22273;-73
2023/01/09 06:57:27;;;;;;;100.10;44.00;;;;;;;4.22;100.00;97225.78;220350;1287;24978;-71
2023/01/09 07:02:29;;;;;;;87.90;43.40;;;;;;;4.38;100.00;97230.65;220261;1287;25358;-72
2023/01/09 07:07:31;;;;;;;75.30;35.90;;;;;;;4.59;100.00;97237.39;220394;1287;23147;-73
2023/01/09 07:12:32;;;;;;;59.80;28.50;;;;;;;4.84;100.00;97237.29;220159;1285;23079;-73
2023/01/09 07:17:34;;;;;;;51.20;26.40;;;;;;;5.10;100.00;97234.07;220341;1288;22390;-73
2023/01/09 07:22:36;;;;;;;57.50;27.30;;;;;;;5.35;100.00;97231.94;220159;1289;25329;-73
2023/01/09 07:27:38;;;;;;;56.20;26.60;;;;;;;5.55;100.00;97232.44;220284;1287;24422;-72
2023/01/09 07:32:40;;;;;;;50.30;25.30;;;;;;;5.73;100.00;97228.98;220133;1290;24472;-78
2023/01/09 07:37:41;;;;;;;53.90;26.00;;;;;;;5.90;100.00;97222.93;220273;1291;22175;-72
2023/01/09 07:42:43;;;;;;;49.60;24.20;;;;;;;6.06;100.00;97225.73;220144;1287;24392;-72
2023/01/09 07:47:45;;;;;;;52.50;26.30;;;;;;;6.19;100.00;97219.30;220109;1290;139819;-72
2023/01/09 07:52:47;;;;;;;51.40;24.00;;;;;;;6.32;100.00;97220.46;220064;1293;22248;-71
2023/01/09 07:57:50;;;;;;;42.30;22.00;;;;;;;6.44;100.00;97217.50;219969;1293;138921;-72
2023/01/09 08:02:53;;;;;;;45.30;21.50;;;;;;;6.54;100.00;97213.48;219953;1288;139129;-72
2023/01/09 08:07:55;;;;;;;39.60;19.10;;;;;;;6.65;100.00;97215.40;220106;1291;139846;-75
2023/01/09 08:13:33;;;;;;;37.70;18.20;;;;;;;6.76;100.00;97213.39;215952;1294;545046;-74
2023/01/09 08:18:38;;;;;;;32.40;17.00;;;;;;;6.80;100.00;97208.29;220234;1281;138524;-74
2023/01/09 08:23:40;;;;;;;37.90;18.80;;;;;;;6.88;100.00;97205.08;219970;1276;137739;-74
2023/01/09 08:28:43;;;;;;;30.60;14.60;;;;;;;6.94;100.00;97198.95;220758;1270;22580;-74
2023/01/09 08:33:48;;;;;;;44.40;22.90;;;;;;;7.03;100.00;97201.15;220399;1282;137597;-75
2023/01/09 08:39:00;;;;;;;43.00;21.40;;;;;;;7.10;100.00;97204.93;220543;1274;137824;-74
2023/01/09 08:49:28;;;;;;;40.10;20.90;;;;;;;7.16;100.00;97196.79;220575;1278;137974;-74
2023/01/09 08:54:32;;;;;;;42.30;21.00;;;;;;;7.20;100.00;97208.21;220405;1273;138365;-73
2023/01/09 08:59:35;;;;;;;37.60;19.50;;;;;;;7.23;100.00;97213.05;220362;1276;138428;-73
2023/01/09 09:04:38;;;;;;;36.80;18.00;;;;;;;7.26;100.00;97212.16;220587;1275;24257;-74
2023/01/09 09:09:43;;;;;;;35.40;18.60;;;;;;;7.30;100.00;97208.49;220421;1280;137792;-74
2023/01/09 09:20:12;;;;;;;34.10;18.00;;;;;;;7.37;100.00;97208.44;220497;1282;138168;-73
2023/01/09 09:25:17;;;;;;;32.20;18.00;;;;;;;7.44;100.00;97209.16;220632;1280;139220;-73
2023/01/09 09:30:23;;;;;;;28.00;14.60;;;;;;;7.52;100.00;97209.70;220610;1269;138095;-73
2023/01/09 09:35:27;;;;;;;25.40;12.90;;;;;;;7.56;100.00;97205.65;220441;1269;138084;-73
2023/01/09 09:40:54;;;;;;;35.40;18.90;;;;;;;7.58;100.00;97202.37;220776;1282;23142;-73
2023/01/09 09:46:09;;;;;;;37.30;20.00;;;;;;;7.69;100.00;97202.16;220676;1275;138125;-73
2023/01/09 09:51:41;;;;;;;38.30;20.20;;;;;;;7.85;100.00;97196.29;220613;1281;141516;-73
2023/01/09 09:56:55;;;;;;;37.20;21.10;;;;;;;8.00;100.00;97198.07;220442;1281;139271;-72
2023/01/09 10:02:11;;;;;;;39.70;20.30;;;;;;;8.08;100.00;97191.88;220247;1289;138424;-73
2023/01/09 10:07:21;;;;;;;36.60;20.10;;;;;;;8.11;100.00;97191.23;220593;1269;138275;-72
2023/01/09 10:12:34;;;;;;;38.30;21.40;;;;;;;8.17;100.00;97184.27;220522;1283;138822;-73
2023/01/09 10:18:16;;;;;;;40.60;20.80;;;;;;;8.22;100.00;97184.80;220483;1283;138651;-72
2023/01/09 10:23:30;;;;;;;37.80;20.40;;;;;;;8.28;100.00;97180.20;220332;1283;138413;-73
2023/01/09 10:28:48;;;;;;;49.50;25.30;;;;;;;8.34;100.00;97178.64;220511;1283;22745;-74
2023/01/09 10:34:23;;;;;;;52.00;29.50;;;;;;;8.38;100.00;97181.66;220569;1272;138426;-73
2023/01/09 10:40:08;;;;;;;55.10;31.00;;;;;;;8.45;100.00;97184.39;220343;1278;138350;-74
2023/01/09 10:45:31;;;;;;;61.80;33.70;;;;;;;8.45;100.00;97184.58;220555;1281;138332;-75
2023/01/09 10:50:40;;;;;;;69.90;35.60;;;;;;;8.44;100.00;97181.90;220340;1269;138164;-73
2023/01/09 10:55:48;;;;;;;58.50;31.00;;;;;;;8.44;100.00;97179.33;220344;1278;138545;-73
2023/01/09 11:00:50;;;;;;;63.40;34.40;;;;;;;8.34;100.00;97176.60;220774;1274;138539;-75
2023/01/09 11:05:57;;;;;;;89.60;48.00;;;;;;;8.28;100.00;97172.64;220554;1281;138927;-73
2023/01/09 11:11:01;;;;;;;64.30;33.40;;;;;;;8.19;100.00;97175.70;220770;1278;22545;-72
2023/01/09 11:16:09;;;;;;;66.90;34.80;;;;;;;8.13;100.00;97173.93;220426;1275;137901;-73
2023/01/09 11:21:43;;;;;;;70.00;35.00;;;;;;;8.07;100.00;97176.28;220437;1270;139065;-73
2023/01/09 11:27:01;;;;;;;46.30;23.50;;;;;;;8.06;100.00;97171.40;220591;1271;138273;-73
2023/01/09 11:32:04;;;;;;;32.00;18.60;;;;;;;8.01;100.00;97170.89;220407;1282;138427;-73
2023/01/09 11:37:15;;;;;;;32.70;18.30;;;;;;;7.95;100.00;97169.02;220237;1284;139062;-72
2023/01/09 11:48:16;;;;;;;20.40;12.80;;;;;;;7.95;100.00;97161.47;220342;1278;138616;-73
2023/01/09 11:53:21;;;;;;;22.10;13.70;;;;;;;8.01;100.00;97159.80;220349;1288;138492;-73
2023/01/09 11:58:23;;;;;;;25.50;12.80;;;;;;;8.09;100.00;97158.77;220312;1281;22553;-73
2023/01/09 12:03:52;;;;;;;24.30;12.50;;;;;;;8.15;100.00;97155.70;220366;1275;139287;-73
2023/01/09 12:08:58;;;;;;;18.60;9.50;;;;;;;8.16;100.00;97150.08;220374;1278;138353;-75
2023/01/09 12:14:32;;;;;;;17.80;9.80;;;;;;;8.18;100.00;97149.42;220594;1275;138402;-74
2023/01/09 12:20:07;;;;;;;16.50;8.50;;;;;;;8.27;100.00;97143.86;220494;1278;138420;-74
2023/01/09 12:25:58;;;;;;;9.80;5.20;;;;;;;8.32;100.00;97138.15;219612;1281;138593;-74
2023/01/09 12:31:23;;;;;;;9.30;4.80;;;;;;;8.37;100.00;97129.36;219708;1283;139223;-74
2023/01/09 12:36:41;;;;;;;7.90;4.30;;;;;;;8.42;100.00;97128.45;219661;1275;138738;-74
2023/01/09 12:42:01;;;;;;;8.60;3.80;;;;;;;8.44;100.00;97129.67;219770;1281;138118;-74
2023/01/09 12:47:27;;;;;;;4.30;3.30;;;;;;;8.45;100.00;97133.55;219667;1276;22572;-73
2023/01/09 12:52:41;;;;;;;7.90;4.80;;;;;;;8.48;100.00;97131.64;220436;1275;25478;-73
2023/01/09 12:57:48;;;;;;;7.40;4.30;;;;;;;8.56;100.00;97128.74;220400;1275;137734;-72
2023/01/09 13:03:09;;;;;;;8.00;4.40;;;;;;;8.59;100.00;97129.73;220539;1267;138122;-74
2023/01/09 13:08:37;;;;;;;7.00;4.50;;;;;;;8.61;100.00;97131.26;220665;1272;138436;-74
2023/01/09 13:14:11;;;;;;;8.00;5.10;;;;;;;8.60;100.00;97139.30;220510;1282;138486;-74
2023/01/09 13:19:18;;;;;;;7.60;4.30;;;;;;;8.56;100.00;97157.45;220516;1272;138572;-74
2023/01/09 13:24:26;;;;;;;8.30;4.10;;;;;;;8.52;100.00;97166.98;220578;1276;138819;-74
2023/01/09 13:29:41;;;;;;;8.30;3.90;;;;;;;8.49;100.00;97184.30;220571;1272;138198;-74
2023/01/09 13:34:50;;;;;;;9.90;4.50;;;;;;;8.46;100.00;97204.10;220845;1270;24203;-75
2023/01/09 13:39:59;;;;;;;5.70;4.00;;;;;;;8.44;100.00;97202.92;220714;1276;138741;-73
2023/01/09 13:45:19;;;;;;;7.60;3.90;;;;;;;8.46;100.00;97203.88;220449;1270;138062;-73
2023/01/09 13:50:25;;;;;;;6.40;3.90;;;;;;;8.49;100.00;97209.83;220500;1267;138513;-74
2023/01/09 13:55:34;;;;;;;6.90;4.30;;;;;;;8.53;100.00;97212.48;220348;1276;138270;-74
2023/01/09 14:00:37;;;;;;;5.80;3.70;;;;;;;8.53;100.00;97212.90;220483;1267;138225;-73
2023/01/09 14:05:42;;;;;;;4.80;2.70;;;;;;;8.51;100.00;97228.67;220567;1281;138449;-73
2023/01/09 14:10:57;;;;;;;5.00;3.00;;;;;;;8.46;100.00;97244.23;220748;1274;27611;-73
2023/01/09 14:16:08;;;;;;;4.10;2.80;;;;;;;8.42;100.00;97258.95;220535;1286;138383;-74
2023/01/09 14:21:11;;;;;;;4.70;3.30;;;;;;;8.35;100.00;97269.86;220297;1288;138316;-74
2023/01/09 14:26:40;;;;;;;4.40;3.20;;;;;;;8.30;100.00;97271.66;220474;1282;137584;-74
2023/01/09 14:31:43;;;;;;;4.20;2.70;;;;;;;8.24;100.00;97279.24;220591;1281;140318;-73
2023/01/09 14:36:45;;;;;;;4.40;3.50;;;;;;;8.17;100.00;97280.59;220766;1275;138685;-72
2023/01/09 14:42:05;;;;;;;5.00;3.00;;;;;;;8.13;100.00;97293.13;221651;1266;138328;-73
2023/01/09 14:47:20;;;;;;;6.90;3.80;;;;;;;8.10;100.00;97298.18;221582;1269;24134;-73
2023/01/09 14:52:30;;;;;;;4.60;2.50;;;;;;;8.06;100.00;97283.73;221670;1269;23034;-76
2023/01/09 14:57:36;;;;;;;7.50;4.30;;;;;;;7.95;100.00;97278.63;221213;1269;138071;-74
2023/01/09 15:02:50;;;;;;;7.30;5.20;;;;;;;7.92;100.00;97293.36;221616;1275;22643;-73
2023/01/09 15:08:03;;;;;;;6.10;4.00;;;;;;;7.87;100.00;97297.08;221126;1279;24507;-72
2023/01/09 15:13:17;;;;;;;5.90;4.20;;;;;;;7.80;100.00;97295.88;221069;1282;22555;-73
2023/01/09 15:18:27;;;;;;;10.20;4.10;;;;;;;7.75;100.00;97313.23;220922;1278;25481;-71
2023/01/09 15:23:30;;;;;;;8.60;5.20;;;;;;;7.72;100.00;97328.16;221176;1281;22607;-73
2023/01/09 15:28:32;;;;;;;5.40;3.70;;;;;;;7.68;100.00;97327.73;221025;1282;23150;-73
2023/01/09 15:33:40;;;;;;;6.70;4.60;;;;;;;7.63;100.00;97338.84;221127;1281;25453;-72
2023/01/09 15:38:43;;;;;;;8.60;5.40;;;;;;;7.60;100.00;97340.17;221171;1282;23388;-73
2023/01/09 15:43:49;;;;;;;9.10;5.00;;;;;;;7.58;100.00;97345.23;221160;1282;22600;-71
2023/01/09 15:48:56;;;;;;;6.60;4.30;;;;;;;7.57;100.00;97351.40;220802;1282;22578;-72
2023/01/09 15:54:04;;;;;;;9.00;5.10;;;;;;;7.53;100.00;97359.31;221071;1282;22534;-73
2023/01/09 15:59:26;;;;;;;9.00;5.50;;;;;;;7.50;100.00;97364.61;220936;1282;24353;-73
2023/01/09 16:04:28;;;;;;;9.00;5.50;;;;;;;7.52;100.00;97371.19;221047;1279;22555;-73
2023/01/09 16:09:36;;;;;;;6.60;4.50;;;;;;;7.52;100.00;97377.84;220945;1282;24255;-73
2023/01/09 16:14:44;;;;;;;10.80;6.60;;;;;;;7.47;100.00;97389.57;221108;1278;22557;-72
2023/01/09 16:19:56;;;;;;;12.20;7.10;;;;;;;7.44;100.00;97401.25;220890;1282;22609;-74
2023/01/09 16:25:04;;;;;;;12.90;7.80;;;;;;;7.42;100.00;97398.10;221086;1282;22965;-73
2023/01/09 16:30:25;;;;;;;12.10;7.70;;;;;;;7.40;100.00;97393.48;221012;1280;22533;-73
2023/01/09 16:35:27;;;;;;;13.80;8.60;;;;;;;7.37;100.00;97396.15;220778;1282;22553;-72
2023/01/09 16:40:30;;;;;;;13.50;8.60;;;;;;;7.33;100.00;97411.09;220888;1281;24197;-73
2023/01/09 16:45:49;;;;;;;15.20;8.80;;;;;;;7.32;100.00;97413.08;221073;1279;22665;-73
2023/01/09 16:50:51;;;;;;;16.70;9.40;;;;;;;7.30;100.00;97416.05;220922;1282;22538;-74
2023/01/09 16:55:54;;;;;;;18.00;10.90;;;;;;;7.29;100.00;97421.45;221047;1281;23768;-73
2023/01/09 17:00:57;;;;;;;18.20;11.30;;;;;;;7.28;100.00;97421.33;220799;1282;25582;-72
2023/01/09 17:06:02;;;;;;;20.30;12.30;;;;;;;7.23;100.00;97430.73;221088;1279;22651;-72
2023/01/09 17:11:04;;;;;;;20.90;13.00;;;;;;;7.19;100.00;97430.36;221081;1276;22543;-72
2023/01/09 17:16:09;;;;;;;24.80;14.20;;;;;;;7.17;100.00;97436.62;220963;1282;25193;-72
2023/01/09 17:21:19;;;;;;;22.80;13.90;;;;;;;7.16;100.00;97445.98;220828;1282;24375;-73
2023/01/09 17:32:02;;;;;;;23.00;14.10;;;;;;;7.16;100.00;97437.76;221003;1282;22693;-73
2023/01/09 17:37:12;;;;;;;26.60;15.50;;;;;;;7.15;100.00;97452.23;221081;1282;25319;-72
2023/01/09 17:42:16;;;;;;;25.00;15.50;;;;;;;7.13;100.00;97457.09;221150;1279;22658;-73
2023/01/09 17:47:18;;;;;;;28.60;16.50;;;;;;;7.11;100.00;97459.23;221050;1279;24126;-72
2023/01/09 17:52:25;;;;;;;33.50;18.30;;;;;;;7.07;100.00;97476.04;220870;1281;22640;-73
2023/01/09 17:57:30;;;;;;;32.40;19.50;;;;;;;7.01;100.00;97477.52;221183;1273;22543;-72
2023/01/09 18:02:40;;;;;;;;;;;;;;;6.99;100.00;97480.74;221079;1278;25456;-71
2023/01/09 18:07:42;;;;;;;32.40;17.10;;;;;;;6.98;100.00;97484.34;221002;1282;24261;-73
2023/01/09 18:12:48;;;;;;;18.60;11.20;;;;;;;6.97;100.00;97482.51;220972;1282;22546;-72
2023/01/09 18:17:56;;;;;;;14.20;8.30;;;;;;;6.95;100.00;97485.86;220941;1282;22543;-73
2023/01/09 18:22:58;;;;;;;13.30;8.30;;;;;;;6.96;100.00;97484.14;221084;1282;22552;-72
2023/01/09 18:28:02;;;;;;;13.40;8.30;;;;;;;6.98;100.00;97495.20;221024;1281;22478;-73
2023/01/09 18:33:12;;;;;;;11.80;7.80;;;;;;;6.98;100.00;97494.77;220980;1282;22555;-73
2023/01/09 18:38:32;;;;;;;11.70;7.80;;;;;;;6.95;100.00;97498.34;221023;1282;25494;-73
2023/01/09 18:44:04;;;;;;;15.60;7.60;;;;;;;6.94;100.00;97508.77;220939;1282;22560;-72
2023/01/09 18:49:08;;;;;;;12.50;6.80;;;;;;;6.90;100.00;97518.32;221050;1282;24235;-73
2023/01/09 18:54:12;;;;;;;15.20;9.10;;;;;;;6.86;100.00;97525.73;220817;1282;22523;-72
2023/01/09 18:59:14;;;;;;;14.40;8.40;;;;;;;6.83;100.00;97534.03;221031;1282;22575;-72
2023/01/09 19:04:19;;;;;;;16.70;9.90;;;;;;;6.81;100.00;97538.31;220917;1282;22553;-72
2023/01/09 19:09:35;;;;;;;16.30;9.80;;;;;;;6.76;100.00;97540.17;221097;1282;22853;-72
2023/01/09 19:14:38;;;;;;;15.60;9.70;;;;;;;6.71;100.00;97536.91;221110;1279;22527;-72
2023/01/09 19:19:58;;;;;;;15.70;10.40;;;;;;;6.70;100.00;97535.70;220893;1282;25339;-74
2023/01/09 19:25:17;;;;;;;15.60;9.00;;;;;;;6.72;100.00;97538.86;220981;1266;24387;-73
2023/01/09 19:30:36;;;;;;;18.10;10.90;;;;;;;6.71;100.00;97545.33;220824;1278;25304;-73
2023/01/09 19:36:09;;;;;;;20.20;11.30;;;;;;;6.71;100.00;97545.92;220978;1282;25402;-73
2023/01/09 19:41:19;;;;;;;23.80;13.80;;;;;;;6.70;100.00;97548.52;220730;1283;22540;-73
2023/01/09 19:46:36;;;;;;;22.60;12.70;;;;;;;6.68;100.00;97548.36;220851;1283;23389;-72
2023/01/09 19:51:41;;;;;;;24.90;13.50;;;;;;;6.64;100.00;97549.00;220924;1279;24231;-71
2023/01/09 19:56:46;;;;;;;24.50;12.90;;;;;;;6.63;100.00;97549.51;221432;1257;24367;-72
2023/01/09 20:01:49;;;;;;;26.20;14.30;;;;;;;6.63;100.00;97553.65;221214;1280;22556;-73
2023/01/09 20:06:52;;;;;;;18.70;12.30;;;;;;;6.65;100.00;97557.08;221383;1280;22533;-72
2023/01/09 20:11:54;;;;;;;17.80;11.10;;;;;;;6.64;100.00;97569.98;221474;1280;24793;-72
2023/01/09 20:16:59;;;;;;;18.80;11.50;;;;;;;6.60;100.00;97573.54;221192;1280;24228;-73
2023/01/09 20:22:02;;;;;;;18.60;10.70;;;;;;;6.57;100.00;97580.89;221529;1280;25325;-73
2023/01/09 20:27:07;;;;;;;18.20;10.90;;;;;;;6.56;100.00;97581.29;221218;1278;143219;-72
2023/01/09 20:32:12;;;;;;;15.80;9.40;;;;;;;6.56;100.00;97589.16;221376;1276;22565;-72
2023/01/09 20:37:14;;;;;;;17.00;10.20;;;;;;;6.53;100.00;97585.86;221276;1280;22626;-73
2023/01/09 20:42:19;;;;;;;17.50;10.40;;;;;;;6.50;100.00;97579.13;221368;1280;22556;-73
2023/01/09 20:47:24;;;;;;;22.60;11.20;;;;;;;6.49;100.00;97584.30;221242;1280;22551;-73
2023/01/09 20:52:32;;;;;;;19.20;10.30;;;;;;;6.48;100.00;97585.01;221369;1280;23359;-72
2023/01/09 20:57:53;;;;;;;19.60;11.60;;;;;;;6.47;100.00;97592.11;221210;1276;25249;-72
2023/01/09 21:02:59;;;;;;;18.50;11.10;;;;;;;6.45;100.00;97594.38;221191;1277;25349;-73
2023/01/09 21:08:16;;;;;;;23.20;11.80;;;;;;;6.42;100.00;97595.44;221099;1274;24266;-72
2023/01/09 21:13:23;;;;;;;20.30;11.30;;;;;;;6.40;100.00;97593.33;221226;1281;22553;-73
2023/01/09 21:18:25;;;;;;;21.10;12.10;;;;;;;6.40;100.00;97598.02;221262;1278;22653;-72
2023/01/09 21:23:28;;;;;;;21.60;11.30;;;;;;;6.41;100.00;97596.51;221403;1280;22533;-72
2023/01/09 21:28:31;;;;;;;24.40;13.30;;;;;;;6.41;100.00;97606.52;221292;1277;22589;-72
2023/01/09 21:33:34;;;;;;;21.90;12.10;;;;;;;6.37;100.00;97606.09;221221;1275;22549;-74
2023/01/09 21:38:36;;;;;;;23.00;12.10;;;;;;;6.37;100.00;97617.92;221356;1280;24277;-73
2023/01/09 21:49:06;;;;;;;26.10;13.20;;;;;;;6.37;100.00;97638.51;221295;1279;22544;-72
2023/01/09 21:54:11;;;;;;;25.30;12.60;;;;;;;6.34;100.00;97643.77;221313;1272;22525;-72
2023/01/09 21:59:19;;;;;;;25.40;13.10;;;;;;;6.30;100.00;97646.48;221486;1272;24321;-72
2023/01/09 22:04:29;;;;;;;21.70;11.80;;;;;;;6.27;100.00;97656.29;221308;1280;22547;-72
2023/01/09 22:09:37;;;;;;;20.20;11.40;;;;;;;6.26;100.00;97661.59;221197;1277;22534;-72
2023/01/09 22:14:40;;;;;;;20.10;10.90;;;;;;;6.22;100.00;97663.86;221400;1280;22580;-71
2023/01/09 22:19:45;;;;;;;16.80;9.80;;;;;;;6.16;100.00;97667.89;221308;1272;22553;-72
2023/01/09 22:24:50;;;;;;;18.10;9.90;;;;;;;6.08;100.00;97669.36;221167;1279;22560;-72
2023/01/09 22:29:51;;;;;;;18.70;10.80;;;;;;;6.04;100.00;97672.72;221178;1275;22576;-73
2023/01/09 22:34:54;;;;;;;18.00;10.70;;;;;;;6.01;100.00;97680.14;221317;1279;23199;-72
2023/01/09 22:39:56;;;;;;;18.90;11.50;;;;;;;6.00;100.00;97690.63;221369;1275;22575;-74
2023/01/09 22:44:59;;;;;;;19.60;11.00;;;;;;;6.01;100.00;97687.38;221399;1275;23808;-72
2023/01/09 22:50:02;;;;;;;24.00;12.20;;;;;;;5.98;100.00;97687.19;221346;1278;22561;-72
2023/01/09 22:55:04;;;;;;;23.70;11.70;;;;;;;5.96;100.00;97689.80;221403;1280;24231;-72
2023/01/09 23:00:11;;;;;;;21.50;11.00;;;;;;;5.93;100.00;97691.58;221373;1273;25261;-73
2023/01/09 23:05:13;;;;;;;22.00;11.00;;;;;;;5.89;100.00;97694.64;221521;1279;22542;-72
2023/01/09 23:10:16;;;;;;;20.60;11.60;;;;;;;5.84;100.00;97695.24;221283;1277;22557;-72
2023/01/09 23:15:18;;;;;;;21.70;11.30;;;;;;;5.81;100.00;97695.81;221364;1275;22666;-73
2023/01/09 23:20:21;;;;;;;17.80;9.90;;;;;;;5.79;100.00;97694.88;221288;1280;22674;-72
2023/01/09 23:25:24;;;;;;;16.60;9.60;;;;;;;5.74;100.00;97699.45;221323;1279;25351;-72
2023/01/09 23:30:29;;;;;;;16.10;8.60;;;;;;;5.71;100.00;97698.74;221238;1276;22541;-73
2023/01/09 23:35:32;;;;;;;15.20;8.40;;;;;;;5.67;100.00;97698.84;221189;1272;25120;-73
2023/01/09 23:40:38;;;;;;;18.70;9.40;;;;;;;5.65;100.00;97702.41;221385;1275;24284;-71
2023/01/09 23:45:47;;;;;;;15.70;8.60;;;;;;;5.64;100.00;97708.01;221493;1276;22541;-72
2023/01/09 23:50:52;;;;;;;13.80;7.50;;;;;;;5.60;100.00;97708.15;221459;1275;25341;-72
2023/01/09 23:55:54;;;;;;;16.00;9.00;;;;;;;5.58;100.00;97707.59;221313;1273;22550;-72
